createdAt,value
2022-12-11T00:02:24.223Z,101304.00
2022-12-11T00:05:25.612Z,101300.66
2022-12-11T00:08:27.010Z,101304.91
2022-12-11T00:11:28.391Z,101298.13
2022-12-11T00:14:29.747Z,101295.63
2022-12-11T00:17:31.087Z,101291.41
2022-12-11T00:20:32.443Z,101286.31
2022-12-11T00:23:37.278Z,101283.78
2022-12-11T00:29:48.793Z,101289.69
2022-12-11T00:36:16.788Z,101290.56
2022-12-11T00:42:27.493Z,101293.13
2022-12-11T02:54:37.874Z,101289.56
2022-12-11T03:01:28.022Z,101276.03
2022-12-11T03:04:30.393Z,101280.25
2022-12-11T03:10:33.071Z,101272.66
2022-12-11T03:13:34.462Z,101275.16
2022-12-11T03:31:02.866Z,101276.00
2022-12-11T03:37:31.151Z,101276.81
2022-12-11T03:47:26.066Z,101280.97
2022-12-11T04:00:20.525Z,101284.31
2022-12-11T04:06:38.234Z,101279.25
2022-12-11T04:13:41.775Z,101285.13
2022-12-11T04:23:23.819Z,101268.22
2022-12-11T04:29:36.153Z,101267.38
2022-12-11T04:32:37.530Z,101272.47
2022-12-11T04:35:50.073Z,101267.41
2022-12-11T04:42:17.218Z,101266.53
2022-12-11T04:45:18.597Z,101266.53
2022-12-11T04:51:52.982Z,101270.72
2022-12-11T04:54:54.391Z,101264.81
2022-12-11T04:57:55.770Z,101263.16
2022-12-11T05:04:31.998Z,101269.03
2022-12-11T05:07:33.330Z,101266.50
2022-12-11T05:14:20.775Z,101263.06
2022-12-11T05:17:22.371Z,101263.06
2022-12-11T05:20:23.750Z,101263.09
2022-12-11T05:23:25.574Z,101270.66
2022-12-11T05:32:56.472Z,101265.59
2022-12-11T05:35:57.971Z,101263.06
2022-12-11T05:39:00.700Z,101259.72
2022-12-11T05:42:02.115Z,101258.88
2022-12-11T05:45:04.023Z,101261.44
2022-12-11T05:48:05.619Z,101260.66
2022-12-11T05:54:26.492Z,101261.53
2022-12-11T05:57:28.817Z,101256.47
2022-12-11T06:00:35.734Z,101262.34
2022-12-11T06:06:58.498Z,101266.53
2022-12-11T06:09:59.898Z,101264.84
2022-12-11T06:13:01.305Z,101269.06
2022-12-11T06:16:05.022Z,101266.53
2022-12-11T06:19:06.459Z,101276.66
2022-12-11T06:25:34.433Z,101271.56
2022-12-11T06:28:36.060Z,101267.38
2022-12-11T06:31:37.694Z,101276.66
2022-12-11T06:38:33.518Z,101264.81
2022-12-11T06:41:34.878Z,101260.63
2022-12-11T06:44:36.247Z,101257.28
2022-12-11T06:51:27.735Z,101254.69
2022-12-11T06:54:29.098Z,101261.44
2022-12-11T06:57:30.459Z,101260.56
2022-12-11T07:00:31.906Z,101266.47
2022-12-11T07:03:33.230Z,101258.00
2022-12-11T07:06:34.598Z,101267.22
2022-12-11T07:09:43.487Z,101268.03
2022-12-11T08:17:29.435Z,101309.09
2022-12-11T08:51:33.083Z,101299.53
2022-12-11T09:08:05.280Z,101292.38
2022-12-11T09:14:26.834Z,101298.47
2022-12-11T09:17:28.159Z,101296.84
2022-12-11T09:20:29.526Z,101298.59
2022-12-11T09:23:31.308Z,101292.00
2022-12-11T09:33:33.016Z,101284.66
2022-12-11T09:36:35.267Z,101291.41
2022-12-11T09:42:57.011Z,101281.34
2022-12-11T09:46:01.846Z,101288.06
2022-12-11T09:49:14.560Z,101276.28
2022-12-11T09:59:15.972Z,101278.00
2022-12-11T10:19:31.798Z,101253.63
2022-12-11T10:22:34.517Z,101247.69
2022-12-11T10:32:53.839Z,101237.56
2022-12-11T10:35:56.983Z,101233.34
2022-12-11T10:38:59.006Z,101238.41
2022-12-11T10:48:24.878Z,101229.09
2022-12-11T11:01:31.369Z,101225.72
2022-12-11T11:18:21.480Z,101216.41
2022-12-11T11:21:25.464Z,101224.84
2022-12-11T11:24:45.761Z,101229.91
2022-12-11T11:45:05.577Z,101184.31
2022-12-11T11:55:22.171Z,101171.66
2022-12-11T11:58:49.446Z,101180.13
2022-12-11T12:01:55.314Z,101178.41
2022-12-11T12:04:56.646Z,101183.47
2022-12-11T12:08:01.876Z,101183.50
2022-12-11T12:15:07.607Z,101186.88
2022-12-11T12:18:21.838Z,101191.94
2022-12-11T12:21:33.957Z,101186.03
2022-12-11T14:16:52.021Z,101229.75
2022-12-11T14:19:55.912Z,101231.44
2022-12-11T14:23:26.180Z,101228.91
2022-12-11T14:26:33.274Z,101225.56
2022-12-11T14:29:34.599Z,101224.69
2022-12-11T14:32:41.725Z,101229.69
2022-12-11T14:35:45.043Z,101229.69
2022-12-11T14:38:49.230Z,101231.28
2022-12-11T14:42:00.228Z,101230.47
2022-12-11T14:45:15.845Z,101221.19
2022-12-11T14:48:22.098Z,101218.63
2022-12-11T14:51:26.023Z,101221.16
2022-12-11T14:54:39.037Z,101216.91
2022-12-11T14:57:45.505Z,101212.56
2022-12-11T15:01:04.712Z,101221.75
2022-12-11T15:04:19.489Z,101219.16
2022-12-11T15:07:21.439Z,101225.06
2022-12-11T15:10:56.877Z,101227.53
2022-12-11T15:14:02.682Z,101223.28
2022-12-11T15:17:04.139Z,101221.56
2022-12-11T15:20:10.522Z,101227.47
2022-12-11T15:23:18.692Z,101236.63
2022-12-11T15:26:32.193Z,101230.66
2022-12-11T15:29:39.435Z,101231.53
2022-12-11T15:32:40.869Z,101235.69
2022-12-11T15:35:53.416Z,101225.59
2022-12-11T15:38:54.783Z,101228.03
2022-12-11T15:41:56.191Z,101219.66
2022-12-11T15:44:59.260Z,101224.78
2022-12-11T15:48:00.658Z,101216.31
2022-12-11T15:51:02.031Z,101216.31
2022-12-11T15:54:03.494Z,101211.25
2022-12-11T15:57:12.800Z,101215.50
2022-12-11T16:00:16.236Z,101215.53
2022-12-11T16:03:18.708Z,101224.72
2022-12-11T16:06:20.141Z,101218.84
2022-12-11T16:09:21.543Z,101217.19
2022-12-11T16:12:22.928Z,101213.88
2022-12-11T16:15:24.774Z,101223.97
2022-12-11T16:18:26.270Z,101213.88
2022-12-11T16:21:27.626Z,101220.56
2022-12-11T16:24:29.057Z,101223.16
2022-12-11T16:27:30.409Z,101226.53
2022-12-11T16:30:33.689Z,101232.44
2022-12-11T16:33:34.951Z,101230.63
2022-12-11T16:36:36.829Z,101225.59
2022-12-11T16:39:38.736Z,101218.03
2022-12-11T16:42:40.417Z,101219.63
2022-12-11T16:45:42.935Z,101209.53
2022-12-11T16:48:45.089Z,101215.47
2022-12-11T16:51:46.493Z,101213.78
2022-12-11T16:54:47.829Z,101217.09
2022-12-11T16:57:49.230Z,101224.69
2022-12-11T17:00:50.601Z,101222.13
2022-12-11T17:03:51.950Z,101227.97
2022-12-11T17:06:53.306Z,101220.41
2022-12-11T17:09:54.650Z,101226.28
2022-12-11T17:12:56.036Z,101226.25
2022-12-11T17:15:57.412Z,101226.94
2022-12-11T17:18:58.892Z,101236.91
2022-12-11T17:22:00.246Z,101239.41
2022-12-11T17:25:01.747Z,101240.28
2022-12-11T17:28:03.099Z,101234.41
2022-12-11T17:31:06.505Z,101236.94
2022-12-11T17:34:07.962Z,101231.91
2022-12-11T17:37:09.428Z,101226.84
2022-12-11T17:40:11.527Z,101228.53
2022-12-11T17:43:13.451Z,101220.94
2022-12-11T17:46:14.903Z,101226.81
2022-12-11T17:49:16.284Z,101220.97
2022-12-11T17:52:17.808Z,101230.22
2022-12-11T17:55:19.250Z,101226.84
2022-12-11T17:58:22.685Z,101229.44
2022-12-11T18:01:23.992Z,101235.94
2022-12-11T18:04:25.444Z,101235.94
2022-12-11T18:07:26.804Z,101241.06
2022-12-11T18:10:28.194Z,101226.81
2022-12-11T18:13:29.527Z,101230.16
2022-12-11T18:16:35.230Z,101235.03
2022-12-11T18:19:39.185Z,101231.66
2022-12-11T18:22:44.181Z,101243.44
2022-12-11T18:25:45.512Z,101240.75
2022-12-11T18:28:50.385Z,101240.81
2022-12-11T18:31:51.921Z,101250.16
2022-12-11T18:34:53.386Z,101241.81
2022-12-11T18:37:55.142Z,101240.13
2022-12-11T18:40:56.498Z,101248.56
2022-12-11T18:44:00.681Z,101249.38
2022-12-11T18:47:04.353Z,101251.16
2022-12-11T18:50:08.225Z,101253.69
2022-12-11T18:53:10.530Z,101259.66
2022-12-11T18:56:15.451Z,101254.75
2022-12-11T18:59:16.792Z,101259.03
2022-12-11T19:02:18.297Z,101253.16
2022-12-11T19:05:19.851Z,101250.66
2022-12-11T19:08:21.296Z,101259.16
2022-12-11T19:11:25.022Z,101264.28
2022-12-11T19:14:26.363Z,101258.44
2022-12-11T19:17:27.827Z,101267.75
2022-12-11T19:20:48.451Z,101262.69
2022-12-11T19:23:50.762Z,101262.69
2022-12-11T19:26:52.094Z,101266.97
2022-12-11T19:29:53.522Z,101273.66
2022-12-11T19:32:54.913Z,101272.00
2022-12-11T19:36:08.405Z,101269.47
2022-12-11T19:39:13.038Z,101256.91
2022-12-11T19:42:14.850Z,101260.31
2022-12-11T19:45:16.243Z,101249.38
2022-12-11T19:48:17.598Z,101255.28
2022-12-11T19:51:24.780Z,101246.88
2022-12-11T19:54:26.121Z,101247.75
2022-12-11T19:57:27.455Z,101251.13
2022-12-11T20:00:28.849Z,101257.91
2022-12-11T20:03:30.819Z,101247.66
2022-12-11T20:06:34.075Z,101256.03
2022-12-11T20:09:35.427Z,101254.31
2022-12-11T20:12:36.952Z,101259.41
2022-12-11T20:15:39.083Z,101251.13
2022-12-11T20:18:40.683Z,101256.25
2022-12-11T20:21:42.296Z,101254.59
2022-12-11T20:24:43.648Z,101258.00
2022-12-11T20:27:45.204Z,101258.00
2022-12-11T20:30:46.533Z,101244.53
2022-12-11T20:33:49.885Z,101253.78
2022-12-11T20:36:52.205Z,101252.13
2022-12-11T20:39:53.613Z,101259.72
2022-12-11T20:42:54.924Z,101258.06
2022-12-11T20:45:56.416Z,101258.09
2022-12-11T20:48:57.829Z,101261.47
2022-12-11T20:51:59.151Z,101263.19
2022-12-11T20:55:00.561Z,101264.88
2022-12-11T20:58:01.903Z,101262.41
2022-12-11T21:01:03.413Z,101264.06
2022-12-11T21:04:04.808Z,101261.47
2022-12-11T21:07:07.494Z,101268.22
2022-12-11T21:10:09.440Z,101266.50
2022-12-11T21:13:10.869Z,101268.97
2022-12-11T21:16:12.463Z,101268.13
2022-12-11T21:19:16.832Z,101270.69
2022-12-11T21:22:18.586Z,101271.53
2022-12-11T21:25:19.950Z,101268.16
2022-12-11T21:28:21.332Z,101266.47
2022-12-11T21:31:22.789Z,101260.53
2022-12-11T21:34:25.751Z,101256.31
2022-12-11T21:37:27.334Z,101250.38
2022-12-11T21:40:29.478Z,101252.03
2022-12-11T21:43:30.815Z,101257.09
2022-12-11T21:46:33.093Z,101256.19
2022-12-11T21:49:34.490Z,101256.16
2022-12-11T21:52:38.202Z,101264.56
2022-12-11T21:55:41.942Z,101272.16
2022-12-11T21:58:44.195Z,101262.88
2022-12-11T22:01:45.783Z,101278.06
2022-12-11T22:04:47.173Z,101281.47
2022-12-11T22:07:48.583Z,101285.69
2022-12-11T22:10:50.092Z,101276.44
2022-12-11T22:13:51.868Z,101279.84
2022-12-11T22:16:53.263Z,101279.84
2022-12-11T22:19:54.673Z,101289.09
2022-12-11T22:22:56.077Z,101286.56
2022-12-11T22:25:58.373Z,101289.94
2022-12-11T22:28:59.733Z,101284.88
2022-12-11T22:32:01.476Z,101282.34
2022-12-11T22:35:03.558Z,101277.31
2022-12-11T22:38:05.293Z,101276.50
2022-12-11T22:41:23.536Z,101277.31
2022-12-11T22:44:24.925Z,101279.03
2022-12-11T22:47:26.451Z,101282.41
2022-12-11T22:50:27.817Z,101274.84
2022-12-11T22:53:29.181Z,101279.06
2022-12-11T22:56:30.782Z,101274.84
2022-12-11T22:59:32.120Z,101282.41
2022-12-11T23:02:33.482Z,101273.16
2022-12-11T23:05:34.895Z,101274.00
2022-12-11T23:08:37.024Z,101272.28
2022-12-11T23:11:38.692Z,101261.34
2022-12-11T23:14:40.069Z,101260.41
2022-12-11T23:17:41.441Z,101266.28
2022-12-11T23:20:42.820Z,101272.22
2022-12-11T23:23:44.272Z,101276.41
2022-12-11T23:26:45.668Z,101272.97
2022-12-11T23:29:47.113Z,101271.25
2022-12-11T23:32:48.444Z,101279.69
2022-12-11T23:35:49.796Z,101282.19
2022-12-11T23:38:54.812Z,101279.63
2022-12-11T23:41:56.854Z,101274.53
2022-12-11T23:44:58.174Z,101275.34
2022-12-11T23:47:59.625Z,101275.34
2022-12-11T23:51:02.053Z,101282.94
2022-12-11T23:54:03.396Z,101288.03
2022-12-11T23:57:04.746Z,101282.13
